Time;durP1;ratioP1;P1;durP2;ratioP2;P2;SDS_P1;SDS_P2;PMS_P1;PMS_P2;Temp;Humidity;BMP_temperature;BMP_pressure;BME280_temperature;BME280_humidity;BME280_pressure;Samples;Min_cycle;Max_cycle;Signal;HPM_P1;HPM_P2
2021/03/05 00:01:24;;;;;;;17.23;15.43;;;9.60;99.90;;;;;;4988360;28;20848;-93
2021/03/05 00:03:54;;;;;;;17.37;15.60;;;9.60;99.90;;;;;;4988380;28;20456;-94
2021/03/05 00:06:24;;;;;;;19.77;17.67;;;9.60;99.90;;;;;;4999448;28;20439;-90
2021/03/05 00:08:53;;;;;;;19.40;16.90;;;9.60;99.90;;;;;;4992173;28;20456;-94
2021/03/05 00:11:19;;;;;;;18.53;16.63;;;9.50;99.90;;;;;;4993393;28;20465;-93
2021/03/05 00:13:46;;;;;;;18.67;16.70;;;9.50;99.90;;;;;;4986959;28;20432;-93
2021/03/05 00:16:15;;;;;;;17.80;16.00;;;9.50;99.90;;;;;;4980905;28;20487;-93
2021/03/05 00:18:46;;;;;;;17.27;15.57;;;9.40;99.90;;;;;;4981112;28;20580;-92
2021/03/05 00:21:18;;;;;;;19.00;17.10;;;9.40;99.90;;;;;;4972798;28;20468;-92
2021/03/05 00:23:49;;;;;;;18.30;16.60;;;9.30;99.90;;;;;;4984922;28;20531;-94
2021/03/05 00:26:19;;;;;;;19.77;17.77;;;9.30;99.90;;;;;;4988843;28;20484;-92
2021/03/05 00:28:48;;;;;;;19.80;17.70;;;9.30;99.90;;;;;;4995781;28;20456;-94
2021/03/05 00:31:17;;;;;;;19.80;17.83;;;9.20;99.90;;;;;;4996897;28;20443;-94
2021/03/05 00:33:44;;;;;;;19.37;17.40;;;9.20;99.90;;;;;;4989247;28;20989;-94
2021/03/05 00:36:13;;;;;;;20.07;17.40;;;9.20;99.90;;;;;;4987622;28;20483;-93
2021/03/05 00:38:41;;;;;;;19.60;17.70;;;9.10;99.90;;;;;;4987451;28;20459;-94
2021/03/05 00:41:07;;;;;;;20.13;18.03;;;9.00;99.90;;;;;;4986775;28;20452;-93
2021/03/05 00:43:40;;;;;;;23.13;20.80;;;8.90;99.90;;;;;;4987024;28;20491;-92
2021/03/05 00:46:14;;;;;;;23.90;21.37;;;8.80;99.90;;;;;;4990612;28;20455;-93
2021/03/05 00:48:43;;;;;;;27.83;22.40;;;8.70;99.90;;;;;;4987705;28;20515;-93
2021/03/05 00:51:13;;;;;;;26.17;23.37;;;8.60;99.90;;;;;;4988912;28;20456;-93
2021/03/05 00:53:45;;;;;;;26.93;22.37;;;8.50;99.90;;;;;;4987685;28;20460;-93
2021/03/05 00:56:13;;;;;;;27.33;23.47;;;8.40;99.90;;;;;;4990254;28;20483;-92
2021/03/05 00:58:47;;;;;;;25.70;22.03;;;8.40;99.90;;;;;;4986333;28;20483;-93
2021/03/05 01:01:14;;;;;;;27.23;23.47;;;8.40;99.90;;;;;;4985018;28;20436;-92
2021/03/05 01:03:43;;;;;;;28.83;24.27;;;8.30;99.90;;;;;;4987129;28;20480;-93
2021/03/05 01:06:13;;;;;;;26.73;23.33;;;8.30;99.90;;;;;;4990018;28;20456;-92
2021/03/05 01:08:39;;;;;;;27.10;22.70;;;8.20;99.90;;;;;;4995195;28;20420;-91
2021/03/05 01:11:09;;;;;;;31.40;25.20;;;8.20;99.90;;;;;;5000254;28;20432;-92
2021/03/05 01:13:39;;;;;;;27.93;24.20;;;8.10;99.90;;;;;;4998745;28;20556;-92
2021/03/05 01:16:06;;;;;;;28.20;23.23;;;8.10;99.90;;;;;;4990076;28;20526;-93
2021/03/05 01:18:34;;;;;;;33.07;25.97;;;8.00;99.90;;;;;;4986237;28;20839;-92
2021/03/05 01:21:01;;;;;;;28.67;23.10;;;8.00;99.90;;;;;;4990888;28;20508;-92
2021/03/05 01:23:30;;;;;;;34.90;26.30;;;7.90;99.90;;;;;;4991604;28;20452;-93
2021/03/05 01:25:57;;;;;;;27.70;22.20;;;7.80;99.90;;;;;;4991598;28;20946;-93
2021/03/05 01:28:27;;;;;;;30.27;24.17;;;7.80;99.90;;;;;;4990059;28;20464;-93
2021/03/05 01:30:54;;;;;;;35.80;26.90;;;7.80;99.90;;;;;;4993331;28;20527;-92
2021/03/05 01:33:20;;;;;;;35.30;25.43;;;7.70;99.90;;;;;;4988668;28;20535;-94
2021/03/05 01:35:46;;;;;;;33.70;25.87;;;7.70;99.90;;;;;;4989274;28;20479;-92
2021/03/05 01:38:16;;;;;;;35.60;25.40;;;7.70;99.90;;;;;;4990554;28;20460;-93
2021/03/05 01:40:45;;;;;;;33.70;24.83;;;7.60;99.90;;;;;;4986519;28;20447;-93
2021/03/05 01:43:14;;;;;;;34.30;26.60;;;7.60;99.90;;;;;;4991222;28;20448;-91
2021/03/05 01:45:45;;;;;;;36.50;27.13;;;7.60;99.90;;;;;;4995680;28;20444;-93
2021/03/05 01:48:14;;;;;;;33.67;25.53;;;7.50;99.90;;;;;;4999391;28;20468;-92
2021/03/05 01:50:51;;;;;;;33.77;26.90;;;7.40;99.90;;;;;;4998779;28;20444;-93
2021/03/05 01:53:18;;;;;;;30.23;25.97;;;7.40;99.90;;;;;;4993674;28;20459;-94
2021/03/05 01:55:45;;;;;;;31.20;24.40;;;7.30;99.90;;;;;;4985784;28;20502;-91
2021/03/05 01:58:14;;;;;;;29.60;25.03;;;7.30;99.90;;;;;;4985188;28;20547;-94
2021/03/05 02:00:44;;;;;;;30.43;24.77;;;7.30;99.90;;;;;;4984253;28;20475;-94
2021/03/05 02:03:14;;;;;;;29.17;23.67;;;7.30;99.90;;;;;;4995265;28;20448;-92
2021/03/05 02:05:41;;;;;;;32.57;25.43;;;7.20;99.90;;;;;;4989609;28;20978;-91
2021/03/05 02:08:08;;;;;;;28.83;23.27;;;7.20;99.90;;;;;;4988261;28;20567;-92
2021/03/05 02:10:35;;;;;;;32.30;25.17;;;7.20;99.90;;;;;;4987837;28;20467;-92
2021/03/05 02:13:07;;;;;;;33.73;26.87;;;7.20;99.90;;;;;;4983883;28;20498;-92
2021/03/05 02:15:38;;;;;;;33.27;24.80;;;7.20;99.90;;;;;;4995405;28;20503;-91
2021/03/05 02:18:15;;;;;;;27.60;23.40;;;7.20;99.90;;;;;;4994809;28;20458;-93
2021/03/05 02:21:01;;;;;;;31.83;24.17;;;7.20;99.90;;;;;;4996618;28;20507;-92
2021/03/05 02:23:39;;;;;;;33.70;22.63;;;7.20;99.90;;;;;;4993542;28;20453;-92
2021/03/05 02:26:52;;;;;;;32.40;25.03;;;7.20;99.90;;;;;;4997061;28;20443;-91
2021/03/05 02:29:54;;;;;;;33.13;24.77;;;7.20;99.90;;;;;;4997189;28;20447;-92
2021/03/05 02:32:28;;;;;;;31.20;22.67;;;7.20;99.90;;;;;;4998925;28;20448;-93
2021/03/05 02:34:55;;;;;;;32.77;24.30;;;7.00;99.90;;;;;;4999028;28;20443;-91
2021/03/05 02:37:24;;;;;;;33.90;23.93;;;7.00;99.90;;;;;;4999151;28;20483;-94
2021/03/05 02:39:57;;;;;;;30.37;24.67;;;7.00;99.90;;;;;;4998630;28;20516;-93
2021/03/05 02:42:27;;;;;;;32.73;24.33;;;7.00;99.90;;;;;;4998256;28;20503;-91
2021/03/05 02:45:00;;;;;;;33.97;24.47;;;7.10;99.90;;;;;;4998814;28;20427;-91
2021/03/05 02:47:30;;;;;;;30.73;22.63;;;7.00;99.90;;;;;;4998860;28;20486;-93
2021/03/05 02:49:56;;;;;;;32.73;23.90;;;6.90;99.90;;;;;;4998324;28;20440;-91
2021/03/05 02:52:41;;;;;;;30.87;22.40;;;6.90;99.90;;;;;;4993040;28;20451;-93
2021/03/05 02:55:18;;;;;;;30.17;20.47;;;6.90;99.90;;;;;;4998338;28;20453;-91
2021/03/05 02:57:46;;;;;;;37.13;22.50;;;6.80;99.90;;;;;;4994715;28;20471;-92
2021/03/05 03:00:18;;;;;;;30.53;22.10;;;6.90;99.90;;;;;;4986946;28;20448;-92
2021/03/05 03:02:48;;;;;;;30.57;20.77;;;6.80;99.90;;;;;;4989098;28;20458;-93
2021/03/05 03:05:15;;;;;;;27.30;19.77;;;6.80;99.90;;;;;;4988555;28;21017;-93
2021/03/05 03:07:48;;;;;;;27.30;20.33;;;6.70;99.90;;;;;;4991894;28;20456;-92
2021/03/05 03:10:15;;;;;;;26.37;20.00;;;6.70;99.90;;;;;;4998074;28;20463;-93
2021/03/05 03:12:43;;;;;;;26.90;19.73;;;6.70;99.90;;;;;;4988873;28;20459;-93
2021/03/05 03:15:11;;;;;;;24.50;19.40;;;6.70;99.90;;;;;;4988270;28;20467;-94
2021/03/05 03:17:43;;;;;;;23.30;19.70;;;6.70;99.90;;;;;;4990518;28;20594;-92
2021/03/05 03:20:14;;;;;;;29.60;21.77;;;6.80;99.90;;;;;;4987806;28;20459;-93
2021/03/05 03:22:40;;;;;;;34.90;23.00;;;6.70;99.90;;;;;;4986824;28;20461;-93
2021/03/05 03:25:07;;;;;;;30.87;21.47;;;6.70;99.90;;;;;;4991319;28;20436;-92
2021/03/05 03:27:36;;;;;;;27.13;22.00;;;6.70;99.90;;;;;;4986674;28;20468;-94
2021/03/05 03:30:05;;;;;;;28.60;22.00;;;6.70;99.90;;;;;;4999346;28;20442;-92
2021/03/05 03:32:37;;;;;;;27.07;20.43;;;6.70;99.90;;;;;;4997416;28;20456;-92
2021/03/05 03:35:04;;;;;;;24.43;18.77;;;6.70;99.90;;;;;;5031731;23;20514;-92
2021/03/05 03:37:34;;;;;;;24.20;18.87;;;6.70;99.90;;;;;;4990938;28;20493;-92
2021/03/05 03:40:04;;;;;;;26.30;21.20;;;6.60;99.90;;;;;;4996917;28;20455;-92
2021/03/05 03:42:33;;;;;;;26.07;19.53;;;6.60;99.90;;;;;;4993173;28;20448;-93
2021/03/05 03:45:00;;;;;;;24.70;19.47;;;6.70;99.90;;;;;;4990832;28;20467;-93
2021/03/05 03:47:27;;;;;;;22.50;17.40;;;6.60;99.90;;;;;;4997000;28;20532;-93
2021/03/05 03:49:57;;;;;;;22.83;19.33;;;6.60;99.90;;;;;;4997310;28;20440;-92
2021/03/05 03:52:31;;;;;;;25.40;18.63;;;6.60;99.90;;;;;;5001590;28;20463;-91
2021/03/05 03:55:02;;;;;;;25.10;20.00;;;6.60;99.90;;;;;;4992785;28;20432;-93
2021/03/05 03:57:34;;;;;;;20.93;17.70;;;6.70;99.90;;;;;;4990878;28;20475;-92
2021/03/05 04:00:04;;;;;;;21.07;18.03;;;6.70;99.90;;;;;;4998604;28;20448;-93
2021/03/05 04:02:35;;;;;;;20.77;17.30;;;6.60;99.90;;;;;;4992334;28;20486;-94
2021/03/05 04:05:03;;;;;;;21.00;18.20;;;6.60;99.90;;;;;;4988056;28;20463;-93
2021/03/05 04:07:34;;;;;;;22.40;19.07;;;6.60;99.90;;;;;;4991331;28;20480;-94
2021/03/05 04:10:03;;;;;;;20.17;17.43;;;6.60;99.90;;;;;;4987696;28;20482;-94
2021/03/05 04:12:31;;;;;;;20.10;15.93;;;6.50;99.90;;;;;;4986590;28;20472;-94
2021/03/05 04:14:58;;;;;;;18.03;16.10;;;6.50;99.90;;;;;;4984814;28;20479;-93
2021/03/05 04:17:28;;;;;;;18.30;16.13;;;6.40;99.90;;;;;;4993481;28;20514;-93
2021/03/05 04:19:56;;;;;;;20.97;17.00;;;6.40;99.90;;;;;;4991931;28;20463;-92
2021/03/05 04:22:27;;;;;;;23.00;18.30;;;6.30;99.90;;;;;;4996208;28;20455;-92
2021/03/05 04:24:57;;;;;;;18.93;16.20;;;6.40;99.90;;;;;;4991256;28;20452;-94
2021/03/05 04:27:31;;;;;;;21.73;18.57;;;6.30;99.90;;;;;;5000904;28;20467;-92
2021/03/05 04:30:00;;;;;;;18.70;16.80;;;6.30;99.90;;;;;;4992841;28;20599;-94
2021/03/05 04:32:30;;;;;;;21.00;16.57;;;6.30;99.90;;;;;;4987075;28;20451;-93
2021/03/05 04:34:56;;;;;;;19.70;16.20;;;6.20;99.90;;;;;;4999493;28;20552;-94
2021/03/05 04:37:22;;;;;;;18.23;16.27;;;6.20;99.90;;;;;;4996243;28;20472;-94
2021/03/05 04:39:53;;;;;;;20.30;16.93;;;6.20;99.90;;;;;;5000724;28;20497;-93
2021/03/05 04:42:25;;;;;;;21.17;16.90;;;6.20;99.90;;;;;;4999325;28;20444;-93
2021/03/05 04:45:02;;;;;;;18.13;16.20;;;6.20;99.90;;;;;;4996687;28;20437;-93
2021/03/05 04:47:28;;;;;;;18.07;15.67;;;6.20;99.90;;;;;;4990133;28;20488;-92
2021/03/05 04:50:04;;;;;;;18.50;15.03;;;6.10;99.90;;;;;;4994581;28;20451;-92
2021/03/05 04:52:33;;;;;;;20.03;16.93;;;6.00;99.90;;;;;;4989021;28;20459;-92
2021/03/05 04:54:59;;;;;;;17.73;15.70;;;6.00;99.90;;;;;;4994997;28;20447;-94
2021/03/05 04:57:26;;;;;;;20.40;16.10;;;6.00;99.90;;;;;;4999187;28;20750;-93
2021/03/05 04:59:58;;;;;;;21.73;16.27;;;6.00;99.90;;;;;;4991643;28;20487;-94
2021/03/05 05:02:25;;;;;;;15.50;13.43;;;6.00;99.90;;;;;;4990096;28;20463;-94
2021/03/05 05:04:51;;;;;;;20.03;15.67;;;6.00;99.90;;;;;;4991348;28;20452;-93
2021/03/05 05:07:22;;;;;;;18.50;15.43;;;6.00;99.90;;;;;;4992583;28;20467;-93
2021/03/05 05:09:58;;;;;;;19.97;16.57;;;6.10;99.90;;;;;;4999114;28;20452;-92
2021/03/05 05:12:31;;;;;;;20.40;16.90;;;6.00;99.90;;;;;;4998910;28;20474;-92
2021/03/05 05:14:59;;;;;;;18.73;15.53;;;6.10;99.90;;;;;;4999952;28;20451;-92
2021/03/05 05:17:28;;;;;;;19.73;16.30;;;6.00;99.90;;;;;;4988631;28;20494;-93
2021/03/05 05:20:00;;;;;;;19.10;15.47;;;6.00;99.90;;;;;;4997717;28;20447;-90
2021/03/05 05:22:26;;;;;;;18.20;16.17;;;6.10;99.90;;;;;;4992575;28;20456;-91
2021/03/05 05:24:55;;;;;;;17.50;15.07;;;6.10;99.90;;;;;;4999083;28;20456;-92
2021/03/05 05:27:27;;;;;;;16.00;13.97;;;6.10;99.90;;;;;;5000210;28;20460;-91
2021/03/05 05:29:53;;;;;;;18.53;15.93;;;6.00;99.90;;;;;;5000295;28;20452;-91
2021/03/05 05:32:21;;;;;;;18.73;14.27;;;6.00;99.90;;;;;;5000035;28;20433;-92
2021/03/05 05:34:48;;;;;;;18.13;15.50;;;6.00;99.90;;;;;;4999686;28;20527;-92
2021/03/05 05:37:20;;;;;;;19.97;16.40;;;6.00;99.90;;;;;;4999485;28;20489;-93
2021/03/05 05:39:47;;;;;;;19.60;16.40;;;6.00;99.90;;;;;;4999469;28;20484;-91
2021/03/05 05:42:16;;;;;;;16.77;14.43;;;6.10;99.90;;;;;;4998821;28;20436;-92
2021/03/05 05:44:43;;;;;;;20.13;15.07;;;6.10;99.90;;;;;;4998674;28;20499;-93
2021/03/05 05:47:15;;;;;;;18.50;14.37;;;6.00;99.90;;;;;;4995253;28;20543;-93
2021/03/05 05:49:44;;;;;;;17.80;15.40;;;6.10;99.90;;;;;;4989688;28;20467;-94
2021/03/05 05:52:17;;;;;;;19.33;15.60;;;6.10;99.90;;;;;;4986644;28;20460;-92
2021/03/05 05:54:47;;;;;;;18.17;14.40;;;6.10;99.90;;;;;;4996305;28;20452;-93
2021/03/05 05:57:14;;;;;;;17.53;14.37;;;6.20;99.90;;;;;;4998574;28;20483;-93
2021/03/05 05:59:46;;;;;;;18.40;14.80;;;6.10;99.90;;;;;;4991441;28;20445;-91
2021/03/05 06:02:13;;;;;;;17.43;13.87;;;6.20;99.90;;;;;;4978351;28;20516;-93
2021/03/05 06:04:40;;;;;;;17.37;14.33;;;6.20;99.90;;;;;;4972631;29;20473;-93
2021/03/05 06:07:08;;;;;;;16.63;13.10;;;6.20;99.90;;;;;;5002436;28;20541;-93
2021/03/05 06:09:37;;;;;;;15.50;12.47;;;6.20;99.90;;;;;;4992806;28;20469;-94
2021/03/05 06:12:14;;;;;;;15.60;12.30;;;6.20;99.90;;;;;;4967975;29;20457;-94
2021/03/05 06:14:42;;;;;;;14.23;12.50;;;6.20;99.90;;;;;;4968372;28;20441;-94
2021/03/05 06:17:12;;;;;;;16.83;13.00;;;6.20;99.90;;;;;;4990005;28;20487;-93
2021/03/05 06:19:45;;;;;;;18.13;12.70;;;6.20;99.90;;;;;;4993260;28;20499;-91
2021/03/05 06:22:21;;;;;;;18.40;13.30;;;6.10;99.90;;;;;;4982949;28;20452;-92
2021/03/05 06:24:47;;;;;;;16.40;12.73;;;6.20;99.90;;;;;;4983268;28;20443;-93
2021/03/05 06:27:18;;;;;;;15.83;12.13;;;6.20;99.90;;;;;;4983619;28;20468;-93
2021/03/05 06:29:46;;;;;;;16.30;13.50;;;6.20;99.90;;;;;;4980355;28;20452;-93
2021/03/05 06:32:14;;;;;;;15.77;11.67;;;6.20;99.90;;;;;;4984239;28;20448;-93
2021/03/05 06:34:48;;;;;;;14.93;11.20;;;6.30;99.90;;;;;;4978339;28;21772;-92
2021/03/05 06:37:19;;;;;;;17.30;13.37;;;6.30;99.90;;;;;;4988290;28;20474;-92
2021/03/05 06:39:57;;;;;;;16.77;11.40;;;6.20;99.90;;;;;;4984118;28;20587;-93
2021/03/05 06:43:08;;;;;;;18.03;11.67;;;6.30;99.90;;;;;;4980599;28;20466;-92
2021/03/05 06:51:07;;;;;;;16.20;11.80;;;6.10;99.90;;;;;;3878320;23;20633;-82
2021/03/05 06:53:34;;;;;;;18.60;12.87;;;6.10;99.90;;;;;;5011722;28;20496;-85
2021/03/05 06:56:01;;;;;;;15.83;12.37;;;6.10;99.90;;;;;;5019862;28;20475;-81
2021/03/05 06:58:28;;;;;;;15.80;11.57;;;6.10;99.90;;;;;;5017734;28;20475;-82
2021/03/05 07:01:01;;;;;;;17.50;12.43;;;6.10;99.90;;;;;;5013147;28;20446;-85
2021/03/05 07:03:27;;;;;;;15.17;11.17;;;6.10;99.90;;;;;;5004272;28;20462;-85
2021/03/05 07:16:25;;;;;;;21.80;14.60;;;6.10;99.90;;;;;;5017963;23;20478;-88
2021/03/05 07:18:51;;;;;;;20.73;14.50;;;6.10;99.90;;;;;;5018191;28;20452;-88
2021/03/05 07:21:19;;;;;;;18.50;13.70;;;6.00;99.90;;;;;;5016932;28;20447;-88
2021/03/05 07:23:48;;;;;;;20.83;15.00;;;6.10;99.90;;;;;;5014034;28;20515;-88
2021/03/05 07:26:21;;;;;;;19.77;13.53;;;6.10;99.90;;;;;;5013297;28;21002;-87
2021/03/05 07:28:49;;;;;;;19.23;14.27;;;6.10;99.90;;;;;;5013483;28;20454;-88
2021/03/05 07:31:18;;;;;;;19.53;13.97;;;6.10;99.90;;;;;;5013172;28;20832;-87
2021/03/05 07:34:18;;;;;;;19.40;12.43;;;6.10;99.90;;;;;;5014068;28;20458;-89
2021/03/05 07:36:49;;;;;;;18.27;13.37;;;6.20;99.90;;;;;;4998208;28;20518;-89
2021/03/05 07:42:57;;;;;;;23.13;15.50;;;6.20;99.90;;;;;;5020280;28;20453;-90
2021/03/05 07:45:26;;;;;;;17.93;13.53;;;6.20;99.90;;;;;;5011295;28;20478;-89
2021/03/05 07:48:02;;;;;;;19.30;14.50;;;6.20;99.90;;;;;;5016386;28;20509;-88
2021/03/05 07:50:31;;;;;;;18.83;13.40;;;6.20;99.90;;;;;;5017558;28;20910;-89
2021/03/05 08:01:10;;;;;;;18.27;13.10;;;6.30;99.90;;;;;;2915247;23;20497;-87
2021/03/05 08:04:28;;;;;;;20.00;14.57;;;6.30;99.90;;;;;;4986875;28;20503;-87
2021/03/05 08:07:28;;;;;;;21.17;15.60;;;6.30;99.90;;;;;;4922876;28;20452;-88
2021/03/05 08:09:58;;;;;;;21.40;15.43;;;6.40;99.90;;;;;;4994236;28;21005;-90
2021/03/05 08:12:54;;;;;;;22.23;14.20;;;6.50;99.90;;;;;;4984043;28;20472;-88
2021/03/05 08:15:47;;;;;;;19.73;14.00;;;6.40;99.90;;;;;;4984672;28;20452;-86
2021/03/05 08:18:49;;;;;;;23.27;15.60;;;6.40;99.90;;;;;;4987063;28;20508;-89
2021/03/05 08:21:53;;;;;;;21.93;17.23;;;6.50;99.90;;;;;;4970386;28;20454;-87
2021/03/05 08:24:39;;;;;;;20.50;14.70;;;6.50;99.90;;;;;;4995372;28;21052;-89
2021/03/05 08:27:39;;;;;;;22.67;14.57;;;6.70;99.90;;;;;;4991111;28;20512;-89
2021/03/05 08:30:13;;;;;;;18.63;13.70;;;6.60;99.90;;;;;;4980288;28;20526;-88
2021/03/05 08:33:09;;;;;;;21.00;14.53;;;6.70;99.90;;;;;;4972207;28;20456;-88
2021/03/05 08:36:04;;;;;;;20.30;13.77;;;6.70;99.90;;;;;;4978763;28;20440;-88
2021/03/05 08:39:25;;;;;;;17.73;14.13;;;6.80;99.90;;;;;;4983889;28;20455;-89
2021/03/05 08:42:33;;;;;;;21.97;14.63;;;6.80;99.90;;;;;;4972900;28;20443;-88
2021/03/05 08:45:40;;;;;;;19.27;14.17;;;6.80;99.90;;;;;;4986799;28;21026;-89
2021/03/05 08:48:31;;;;;;;23.23;14.90;;;6.80;99.90;;;;;;4966839;28;20444;-87
2021/03/05 08:51:16;;;;;;;17.00;13.97;;;6.90;99.90;;;;;;4983053;28;21000;-90
2021/03/05 08:54:16;;;;;;;16.50;13.23;;;6.80;99.90;;;;;;4984928;28;20460;-88
2021/03/05 08:56:57;;;;;;;20.83;14.57;;;6.80;99.90;;;;;;4977849;28;20492;-89
2021/03/05 08:59:42;;;;;;;18.87;12.80;;;6.90;99.90;;;;;;4982937;28;20460;-89
2021/03/05 09:02:29;;;;;;;17.20;12.43;;;6.90;99.90;;;;;;4982133;28;20463;-89
2021/03/05 09:15:28;;;;;;;15.60;12.30;;;7.00;99.90;;;;;;4966856;28;20467;-88
2021/03/05 09:18:48;;;;;;;21.30;14.60;;;7.00;99.90;;;;;;4980921;28;20578;-87
2021/03/05 09:21:44;;;;;;;18.83;13.70;;;7.00;99.90;;;;;;4923625;29;20478;-89
2021/03/05 09:25:06;;;;;;;17.50;12.77;;;7.00;99.90;;;;;;5003853;28;20523;-87
2021/03/05 09:27:34;;;;;;;17.33;11.87;;;7.00;99.80;;;;;;5017402;28;20477;-87
2021/03/05 09:40:45;;;;;;;14.83;10.40;;;7.10;98.90;;;;;;4953454;28;20586;-89
2021/03/05 09:43:25;;;;;;;19.70;12.90;;;7.20;99.10;;;;;;4973979;28;20487;-89
2021/03/05 09:46:17;;;;;;;14.90;11.13;;;7.20;98.50;;;;;;4980833;28;20463;-89
2021/03/05 09:48:58;;;;;;;12.67;11.33;;;7.20;98.40;;;;;;4981160;28;20500;-89
2021/03/05 09:54:55;;;;;;;17.60;11.73;;;7.40;98.50;;;;;;4969305;28;20472;-89
2021/03/05 10:01:17;;;;;;;14.90;12.87;;;7.80;98.10;;;;;;4908196;29;20505;-88
2021/03/05 10:04:08;;;;;;;15.90;11.80;;;7.90;97.30;;;;;;4984780;28;20655;-89
2021/03/05 10:07:08;;;;;;;17.90;11.97;;;8.10;97.00;;;;;;4987479;28;20471;-88
2021/03/05 10:09:54;;;;;;;14.70;12.40;;;8.00;96.60;;;;;;4984806;28;20448;-88
2021/03/05 10:16:11;;;;;;;14.77;11.20;;;8.00;96.20;;;;;;4835996;29;20533;-89
2021/03/05 10:19:02;;;;;;;14.80;11.40;;;8.10;96.10;;;;;;4866942;29;20461;-89
2021/03/05 10:21:40;;;;;;;16.07;12.33;;;8.20;96.10;;;;;;4977976;28;20451;-88
2021/03/05 10:24:31;;;;;;;;;;;;;;;;;;;;;
2021/03/05 10:27:12;;;;;;;18.23;13.00;;;8.60;95.30;;;;;;4989942;28;20447;-89
2021/03/05 10:29:56;;;;;;;15.50;11.97;;;8.60;95.30;;;;;;4982189;28;20432;-89
2021/03/05 10:35:28;;;;;;;15.30;11.47;;;8.60;95.20;;;;;;4988139;28;20448;-86
2021/03/05 10:41:48;;;;;;;18.13;11.57;;;8.50;94.40;;;;;;4930647;28;20590;-88
2021/03/05 10:44:16;;;;;;;17.40;11.10;;;8.40;94.50;;;;;;4986861;28;20455;-87
2021/03/05 10:50:10;;;;;;;15.80;12.40;;;8.30;94.90;;;;;;4980733;28;20468;-89
2021/03/05 10:59:51;;;;;;;16.27;12.50;;;8.10;94.70;;;;;;4835361;29;20458;-88
2021/03/05 11:02:23;;;;;;;18.20;12.60;;;8.20;95.00;;;;;;4970841;28;20458;-88
2021/03/05 11:05:16;;;;;;;20.43;13.90;;;8.30;94.40;;;;;;4998739;28;20826;-88
2021/03/05 11:08:43;;;;;;;18.00;11.83;;;8.50;94.00;;;;;;4981902;28;20432;-88
2021/03/05 11:11:27;;;;;;;18.20;12.90;;;8.50;93.70;;;;;;4954612;28;20483;-88
2021/03/05 11:13:53;;;;;;;16.87;12.30;;;8.40;93.30;;;;;;5126300;23;20498;-88
2021/03/05 11:16:20;;;;;;;17.43;12.60;;;8.40;93.70;;;;;;5028303;28;20472;-87
2021/03/05 11:19:26;;;;;;;18.37;14.23;;;8.50;93.90;;;;;;5026585;28;20438;-88
2021/03/05 11:43:50;;;;;;;;;;;;;;;;;;;;;
2021/03/05 11:57:01;;;;;;;18.10;12.93;;;8.40;92.70;;;;;;4789119;29;20495;-87
2021/03/05 12:10:07;;;;;;;17.87;12.90;;;8.40;92.10;;;;;;4984457;23;20493;-90
2021/03/05 12:13:05;;;;;;;18.53;11.87;;;8.40;92.00;;;;;;4980532;28;20499;-91
2021/03/05 12:16:06;;;;;;;15.40;13.10;;;8.40;92.00;;;;;;4983458;28;20444;-89
2021/03/05 12:19:02;;;;;;;15.50;12.37;;;8.50;91.90;;;;;;4973139;28;20483;-90
2021/03/05 12:21:44;;;;;;;17.13;12.20;;;8.60;91.70;;;;;;4966472;28;20465;-89
2021/03/05 12:24:26;;;;;;;17.50;12.90;;;8.70;91.50;;;;;;4973646;28;20429;-89
2021/03/05 12:27:10;;;;;;;14.87;12.50;;;8.70;91.10;;;;;;4987794;28;20447;-88
2021/03/05 12:29:49;;;;;;;18.03;13.10;;;8.70;91.20;;;;;;4987695;28;20464;-89
2021/03/05 12:32:32;;;;;;;14.77;12.40;;;8.60;91.10;;;;;;4969291;28;20464;-89
2021/03/05 12:35:05;;;;;;;17.10;12.63;;;8.60;91.40;;;;;;4978751;28;20476;-88
2021/03/05 12:40:21;;;;;;;23.83;16.23;;;8.80;91.60;;;;;;4976397;28;20458;-89
2021/03/05 12:43:00;;;;;;;15.70;12.60;;;8.80;91.00;;;;;;4970968;28;20515;-88
2021/03/05 12:45:27;;;;;;;18.30;13.70;;;8.80;90.90;;;;;;4973716;28;20503;-89
2021/03/05 12:48:04;;;;;;;14.53;12.37;;;8.90;91.00;;;;;;4976913;28;20460;-88
2021/03/05 12:50:31;;;;;;;16.50;12.77;;;9.00;90.80;;;;;;4987649;28;20448;-89
2021/03/05 12:53:07;;;;;;;18.70;12.57;;;9.10;90.40;;;;;;4979027;28;20464;-88
2021/03/05 12:55:35;;;;;;;16.57;12.90;;;9.20;89.90;;;;;;4974553;28;20451;-88
2021/03/05 12:58:30;;;;;;;19.47;14.10;;;9.30;89.70;;;;;;4983060;28;20543;-88
2021/03/05 13:01:04;;;;;;;15.70;12.40;;;9.30;89.10;;;;;;4979794;28;20433;-88
2021/03/05 13:03:39;;;;;;;14.50;11.53;;;9.30;89.20;;;;;;4979834;28;20536;-89
2021/03/05 13:06:12;;;;;;;14.60;11.83;;;9.40;88.60;;;;;;4984920;28;20486;-89
2021/03/05 13:08:51;;;;;;;17.40;13.70;;;9.50;88.00;;;;;;4982862;28;20467;-88
2021/03/05 13:32:08;;;;;;;13.80;11.83;;;9.30;87.50;;;;;;4941863;28;20742;-89
2021/03/05 13:35:35;;;;;;;14.77;11.43;;;9.30;87.10;;;;;;4986469;28;20452;-89
2021/03/05 13:42:14;;;;;;;17.27;12.10;;;9.20;87.20;;;;;;4921904;29;20628;-88
2021/03/05 13:49:03;;;;;;;18.80;12.90;;;8.70;88.00;;;;;;4900055;29;20458;-88
2021/03/05 13:52:46;;;;;;;;;;;;;;;;;;;;;
2021/03/05 13:59:46;;;;;;;15.70;11.60;;;8.50;91.30;;;;;;4902175;28;20440;-88
2021/03/05 14:02:40;;;;;;;23.63;14.50;;;8.10;91.90;;;;;;4971556;28;20498;-92
2021/03/05 14:05:11;;;;;;;20.10;14.20;;;8.10;92.60;;;;;;4985951;28;20474;-91
2021/03/05 14:07:54;;;;;;;18.30;12.10;;;8.00;92.80;;;;;;4967577;28;21004;-88
2021/03/05 14:10:28;;;;;;;19.20;14.17;;;7.90;93.00;;;;;;4980575;28;20512;-90
2021/03/05 14:13:20;;;;;;;18.30;13.87;;;7.80;93.50;;;;;;4979070;28;20467;-92
2021/03/05 14:15:57;;;;;;;20.50;13.40;;;7.80;93.60;;;;;;4976241;28;20476;-88
2021/03/05 14:18:36;;;;;;;14.60;11.60;;;7.80;93.80;;;;;;4968163;28;20960;-89
2021/03/05 14:21:18;;;;;;;13.80;11.40;;;7.80;93.50;;;;;;4975794;28;20471;-89
2021/03/05 14:23:53;;;;;;;17.80;13.73;;;7.80;92.80;;;;;;4975530;28;20447;-89
2021/03/05 14:26:27;;;;;;;18.13;13.13;;;7.80;92.90;;;;;;4974601;28;20464;-90
2021/03/05 14:28:59;;;;;;;19.50;11.97;;;7.80;93.20;;;;;;4985075;28;20440;-88
2021/03/05 14:31:37;;;;;;;16.83;13.20;;;7.80;93.10;;;;;;4984290;28;20459;-89
2021/03/05 14:34:25;;;;;;;16.97;13.33;;;7.80;93.30;;;;;;4974234;28;20467;-88
2021/03/05 14:36:53;;;;;;;17.13;11.80;;;7.70;93.40;;;;;;4973795;28;21206;-87
2021/03/05 14:39:23;;;;;;;18.67;13.07;;;7.70;93.50;;;;;;4975259;28;20452;-89
2021/03/05 14:41:49;;;;;;;19.60;13.43;;;7.70;93.80;;;;;;4969377;28;20437;-90
2021/03/05 14:44:19;;;;;;;17.20;12.73;;;7.70;93.90;;;;;;4971721;28;20517;-91
2021/03/05 14:47:08;;;;;;;16.07;12.43;;;7.70;94.00;;;;;;4980709;28;20437;-91
2021/03/05 14:49:35;;;;;;;16.30;12.70;;;7.70;94.00;;;;;;4992056;28;20503;-89
2021/03/05 14:52:03;;;;;;;19.03;12.77;;;7.50;94.10;;;;;;4998181;28;20479;-87
2021/03/05 15:04:55;;;;;;;15.77;12.20;;;7.40;95.20;;;;;;4888711;29;20449;-88
2021/03/05 15:07:23;;;;;;;15.00;11.67;;;7.50;95.30;;;;;;4956937;28;20476;-85
2021/03/05 15:09:49;;;;;;;18.10;14.00;;;7.40;95.40;;;;;;4970615;28;20444;-85
2021/03/05 15:12:15;;;;;;;14.87;10.97;;;7.40;95.70;;;;;;4967088;28;20449;-85
2021/03/05 15:14:41;;;;;;;11.47;10.00;;;7.40;95.80;;;;;;4975197;28;20444;-85
2021/03/05 15:17:08;;;;;;;11.67;9.77;;;7.40;95.80;;;;;;4972194;28;20480;-84
2021/03/05 15:19:35;;;;;;;11.67;8.43;;;7.30;95.50;;;;;;4964845;28;20452;-85
2021/03/05 15:22:01;;;;;;;14.53;9.17;;;7.30;95.30;;;;;;4964912;29;20445;-85
2021/03/05 15:24:28;;;;;;;11.37;8.73;;;7.30;95.40;;;;;;4965733;29;20524;-85
2021/03/05 15:26:55;;;;;;;13.53;9.53;;;7.30;95.70;;;;;;4965601;28;20496;-85
2021/03/05 15:29:21;;;;;;;10.80;8.23;;;7.40;95.20;;;;;;4976304;28;20452;-84
2021/03/05 15:31:47;;;;;;;10.17;7.97;;;7.40;94.90;;;;;;4975045;28;20445;-83
2021/03/05 15:34:14;;;;;;;9.53;8.00;;;7.40;94.80;;;;;;4978750;28;20429;-84
2021/03/05 15:36:41;;;;;;;10.60;8.77;;;7.40;94.80;;;;;;4968109;28;20468;-84
2021/03/05 15:39:07;;;;;;;8.70;7.63;;;7.30;94.90;;;;;;4966680;29;20491;-85
2021/03/05 15:41:36;;;;;;;9.90;7.63;;;7.20;95.40;;;;;;4959454;29;20449;-86
2021/03/05 15:44:02;;;;;;;8.50;6.87;;;7.00;96.30;;;;;;4968748;29;20456;-86
2021/03/05 15:46:28;;;;;;;8.93;6.50;;;6.80;96.50;;;;;;4960806;29;20471;-86
2021/03/05 15:48:55;;;;;;;7.90;6.30;;;6.40;97.20;;;;;;4964887;29;20596;-85
2021/03/05 15:51:24;;;;;;;8.43;6.10;;;6.00;98.00;;;;;;4962957;29;20461;-86
2021/03/05 15:53:51;;;;;;;6.83;5.80;;;5.80;99.30;;;;;;4963801;29;20463;-84
2021/03/05 15:56:18;;;;;;;5.80;4.97;;;5.40;99.90;;;;;;4970854;29;20457;-86
2021/03/05 15:58:45;;;;;;;5.67;5.00;;;5.00;99.90;;;;;;4980854;28;20529;-87
2021/03/05 16:01:11;;;;;;;6.60;5.70;;;4.70;99.90;;;;;;4975427;28;20447;-86
2021/03/05 16:03:37;;;;;;;6.25;4.20;;;4.50;99.90;;;;;;4966596;29;20447;-86
2021/03/05 16:06:03;;;;;;;6.50;5.25;;;4.30;99.90;;;;;;4964471;29;20257;-87